createdAt,value
2023-04-01T00:01:14.966Z,2.13
2023-04-01T00:03:43.726Z,1.60
2023-04-01T00:06:16.430Z,2.33
2023-04-01T00:08:45.455Z,1.87
2023-04-01T00:11:14.153Z,1.50
2023-04-01T00:13:45.038Z,1.73
2023-04-01T00:16:21.770Z,1.97
2023-04-01T00:18:52.373Z,2.00
2023-04-01T00:21:21.640Z,1.60
2023-04-01T00:23:49.920Z,2.10
2023-04-01T00:26:20.353Z,1.60
2023-04-01T00:28:50.403Z,2.60
2023-04-01T00:31:19.000Z,2.23
2023-04-01T00:33:47.495Z,2.23
2023-04-01T00:36:18.101Z,2.30
2023-04-01T00:38:47.952Z,1.30
2023-04-01T00:41:18.179Z,2.27
2023-04-01T00:43:48.607Z,3.53
2023-04-01T00:46:19.151Z,3.13
2023-04-01T00:48:50.749Z,2.83
2023-04-01T00:51:23.429Z,4.30
2023-04-01T00:53:54.801Z,3.47
2023-04-01T00:56:28.194Z,2.33
2023-04-01T00:59:02.571Z,2.20
2023-04-01T01:01:33.059Z,3.17
2023-04-01T01:04:02.699Z,3.87
2023-04-01T01:06:46.324Z,3.77
2023-04-01T01:09:28.612Z,2.57
2023-04-01T01:12:04.684Z,2.17
2023-04-01T01:14:48.017Z,3.90
2023-04-01T01:17:27.032Z,1.67
2023-04-01T01:20:34.276Z,2.27
2023-04-01T01:23:51.712Z,1.97
2023-04-01T01:26:44.794Z,3.90
2023-04-01T01:29:31.720Z,3.73
2023-04-01T01:32:09.435Z,5.40
2023-04-01T01:34:42.794Z,1.70
2023-04-01T01:37:15.751Z,1.33
2023-04-01T01:39:46.356Z,1.77
2023-04-01T01:42:18.293Z,1.77
2023-04-01T01:44:49.833Z,4.67
2023-04-01T01:47:19.300Z,1.83
2023-04-01T01:49:48.054Z,1.63
2023-04-01T01:52:19.630Z,2.13
2023-04-01T01:54:51.607Z,1.73
2023-04-01T01:57:26.059Z,3.73
2023-04-01T01:59:57.177Z,1.43
2023-04-01T02:02:26.970Z,2.27
2023-04-01T02:04:59.018Z,3.23
2023-04-01T02:07:33.118Z,1.87
2023-04-01T02:10:01.818Z,2.13
2023-04-01T02:12:31.557Z,2.33
2023-04-01T02:15:06.450Z,2.27
2023-04-01T02:17:37.948Z,1.73
2023-04-01T02:20:11.201Z,1.40
2023-04-01T02:22:43.763Z,2.53
2023-04-01T02:25:15.435Z,2.83
2023-04-01T02:27:46.402Z,1.60
2023-04-01T02:30:16.063Z,2.13
2023-04-01T02:32:45.377Z,2.47
2023-04-01T02:35:17.218Z,2.43
2023-04-01T02:37:49.836Z,1.80
2023-04-01T02:40:19.046Z,1.80
2023-04-01T02:42:47.375Z,3.60
2023-04-01T02:45:16.796Z,2.57
2023-04-01T02:47:44.964Z,2.60
2023-04-01T02:50:13.294Z,1.90
2023-04-01T02:52:41.494Z,1.70
2023-04-01T02:55:11.788Z,1.87
2023-04-01T02:57:39.911Z,1.50
2023-04-01T03:00:12.351Z,2.87
2023-04-01T03:02:40.923Z,1.40
2023-04-01T03:05:09.871Z,2.77
2023-04-01T03:07:38.102Z,2.77
2023-04-01T03:10:07.347Z,3.57
2023-04-01T03:12:36.896Z,1.30
2023-04-01T03:15:11.009Z,2.23
2023-04-01T03:17:40.011Z,1.97
2023-04-01T03:20:11.847Z,2.23
2023-04-01T03:22:42.889Z,2.17
2023-04-01T03:25:12.656Z,3.13
2023-04-01T03:27:42.366Z,1.30
2023-04-01T03:30:11.773Z,1.50
2023-04-01T03:32:40.164Z,1.77
2023-04-01T03:35:10.727Z,2.27
2023-04-01T03:37:39.366Z,1.37
2023-04-01T03:40:08.608Z,1.53
2023-04-01T03:42:37.199Z,2.60
2023-04-01T03:45:08.166Z,1.87
2023-04-01T03:47:36.998Z,1.13
2023-04-01T03:50:05.557Z,2.63
2023-04-01T03:52:33.791Z,2.23
2023-04-01T03:55:02.123Z,4.50
2023-04-01T03:57:33.108Z,2.00
2023-04-01T04:00:01.231Z,1.60
2023-04-01T04:02:31.195Z,2.40
2023-04-01T04:04:59.472Z,2.03
2023-04-01T04:07:28.036Z,1.77
2023-04-01T04:09:56.733Z,1.73
2023-04-01T04:12:25.940Z,1.30
2023-04-01T04:14:54.190Z,1.23
2023-04-01T04:17:22.627Z,2.43
2023-04-01T04:19:52.152Z,1.80
2023-04-01T04:22:20.647Z,2.53
2023-04-01T04:24:49.447Z,1.03
2023-04-01T04:27:17.786Z,1.10
2023-04-01T04:29:46.076Z,1.40
2023-04-01T04:32:14.466Z,2.10
2023-04-01T04:34:42.834Z,2.77
2023-04-01T04:37:12.699Z,2.17
2023-04-01T04:39:41.330Z,2.00
2023-04-01T04:42:09.400Z,3.00
2023-04-01T04:44:37.826Z,1.50
2023-04-01T04:47:06.249Z,1.73
2023-04-01T04:49:34.510Z,1.80
2023-04-01T04:52:02.646Z,3.23
2023-04-01T04:54:32.703Z,2.20
2023-04-01T04:57:01.328Z,3.73
2023-04-01T04:59:29.487Z,1.83
2023-04-01T05:01:58.054Z,4.53
2023-04-01T05:04:26.501Z,3.47
2023-04-01T05:06:54.854Z,2.70
2023-04-01T05:09:23.422Z,2.17
2023-04-01T05:11:53.272Z,3.60
2023-04-01T05:14:21.387Z,3.23
2023-04-01T05:16:50.514Z,3.90
2023-04-01T05:19:18.688Z,4.53
2023-04-01T05:21:46.845Z,4.13
2023-04-01T05:24:15.582Z,3.50
2023-04-01T05:26:43.759Z,5.90
2023-04-01T05:29:13.485Z,4.63
2023-04-01T05:31:41.661Z,4.60
2023-04-01T05:34:09.743Z,7.47
2023-04-01T05:36:37.906Z,4.30
2023-04-01T05:39:06.437Z,3.40
2023-04-01T05:41:37.368Z,3.50
2023-04-01T05:44:06.546Z,2.30
2023-04-01T05:46:36.361Z,2.63
2023-04-01T05:49:04.536Z,5.40
2023-04-01T05:51:32.657Z,4.00
2023-04-01T05:54:01.012Z,2.73
2023-04-01T05:56:29.422Z,3.63
2023-04-01T05:58:58.006Z,3.77
2023-04-01T06:01:28.829Z,1.77
2023-04-01T06:03:58.724Z,1.83
2023-04-01T06:06:29.293Z,10.50
2023-04-01T06:09:01.689Z,2.20
2023-04-01T06:11:39.984Z,4.17
2023-04-01T06:14:18.247Z,4.43
2023-04-01T06:17:02.925Z,4.87
2023-04-01T06:19:42.950Z,4.37
2023-04-01T06:22:45.009Z,4.97
2023-04-01T06:25:26.717Z,3.77
2023-04-01T06:28:09.173Z,3.93
2023-04-01T06:30:45.395Z,4.40
2023-04-01T06:33:43.762Z,4.43
2023-04-01T06:36:41.420Z,5.40
2023-04-01T06:39:31.982Z,3.60
2023-04-01T06:42:33.018Z,4.23
2023-04-01T06:45:11.399Z,3.77
2023-04-01T06:47:53.234Z,2.93
2023-04-01T06:50:29.222Z,2.97
2023-04-01T06:53:08.592Z,2.87
2023-04-01T06:55:42.478Z,4.70
2023-04-01T06:58:21.828Z,2.10
2023-04-01T07:00:53.217Z,3.30
2023-04-01T07:03:25.536Z,2.87
2023-04-01T07:05:55.516Z,3.63
2023-04-01T07:08:28.050Z,7.07
2023-04-01T07:10:59.426Z,3.97
2023-04-01T07:13:33.218Z,3.73
2023-04-01T07:16:09.584Z,3.60
2023-04-01T07:18:44.030Z,3.43
2023-04-01T07:21:28.119Z,4.13
2023-04-01T07:24:04.692Z,3.53
2023-04-01T07:26:33.642Z,3.37
2023-04-01T07:29:02.238Z,2.37
2023-04-01T07:31:53.119Z,2.30
2023-04-01T07:34:27.293Z,3.97
2023-04-01T07:37:03.599Z,5.43
2023-04-01T07:39:43.840Z,1.53
2023-04-01T07:42:20.575Z,3.03
2023-04-01T07:44:59.094Z,2.37
2023-04-01T07:47:43.268Z,2.00
2023-04-01T07:50:23.508Z,3.30
2023-04-01T07:53:00.099Z,3.90
2023-04-01T07:55:36.573Z,4.07
2023-04-01T07:58:13.923Z,1.93
2023-04-01T08:00:47.110Z,3.37
2023-04-01T08:03:36.007Z,2.60
2023-04-01T08:06:11.569Z,4.53
2023-04-01T08:08:53.661Z,5.43
2023-04-01T08:11:37.547Z,2.67
2023-04-01T08:14:15.731Z,3.07
2023-04-01T08:16:49.278Z,2.80
2023-04-01T08:19:31.880Z,2.60
2023-04-01T08:22:05.610Z,1.90
2023-04-01T08:24:47.591Z,3.83
2023-04-01T08:27:23.893Z,1.70
2023-04-01T08:29:58.397Z,2.07
2023-04-01T08:32:31.497Z,3.23
2023-04-01T08:35:12.022Z,2.73
2023-04-01T08:37:43.441Z,2.33
2023-04-01T08:40:56.215Z,3.43
2023-04-01T08:43:37.804Z,2.00
2023-04-01T08:46:22.179Z,6.13
2023-04-01T08:49:12.934Z,2.00
2023-04-01T08:52:21.018Z,3.10
2023-04-01T08:55:03.985Z,5.90
2023-04-01T08:57:44.614Z,1.33
2023-04-01T09:00:31.742Z,1.70
2023-04-01T09:03:25.580Z,2.70
2023-04-01T09:06:21.923Z,1.97
2023-04-01T09:09:03.521Z,1.90
2023-04-01T09:11:48.184Z,1.67
2023-04-01T09:14:51.422Z,2.43
2023-04-01T09:17:41.344Z,2.40
2023-04-01T09:20:41.550Z,1.87
2023-04-01T09:23:29.300Z,2.10
2023-04-01T09:26:11.138Z,4.60
2023-04-01T09:28:48.749Z,7.40
2023-04-01T09:31:34.492Z,1.53
2023-04-01T09:34:24.908Z,5.47
2023-04-01T09:37:03.137Z,4.03
2023-04-01T09:39:39.551Z,3.30
2023-04-01T09:42:32.077Z,3.93
2023-04-01T09:45:07.874Z,2.47
2023-04-01T09:47:58.981Z,1.97
2023-04-01T09:50:36.692Z,4.07
2023-04-01T09:53:17.166Z,1.70
2023-04-01T09:56:22.268Z,3.10
2023-04-01T09:59:27.772Z,3.57
2023-04-01T10:02:57.403Z,7.03
2023-04-01T10:06:05.634Z,2.43
2023-04-01T10:09:13.022Z,1.80
2023-04-01T10:12:20.191Z,3.03
2023-04-01T10:15:22.040Z,4.63
2023-04-01T10:18:25.524Z,2.77
2023-04-01T10:21:22.598Z,2.03
2023-04-01T10:24:22.716Z,3.77
2023-04-01T10:27:18.701Z,2.93
2023-04-01T10:30:19.781Z,4.30
2023-04-01T10:33:17.285Z,2.50
2023-04-01T10:36:39.028Z,3.03
2023-04-01T10:39:35.912Z,3.87
2023-04-01T10:42:42.027Z,2.77
2023-04-01T10:45:44.992Z,7.77
2023-04-01T10:48:25.854Z,4.57
2023-04-01T10:51:10.474Z,5.73
2023-04-01T10:53:57.747Z,6.07
2023-04-01T10:56:42.772Z,2.90
2023-04-01T10:59:54.005Z,2.13
2023-04-01T11:03:02.103Z,1.83
2023-04-01T11:06:33.374Z,4.77
2023-04-01T11:09:38.933Z,2.57
2023-04-01T11:12:51.084Z,2.37
2023-04-01T11:16:00.767Z,2.47
2023-04-01T11:19:28.449Z,2.80
2023-04-01T11:22:16.622Z,3.47
2023-04-01T11:25:06.506Z,1.83
2023-04-01T11:28:07.152Z,2.67
2023-04-01T11:31:01.137Z,4.70
2023-04-01T11:33:36.798Z,5.73
2023-04-01T11:36:23.670Z,4.40
2023-04-01T11:39:13.745Z,4.10
2023-04-01T11:41:48.417Z,5.70
2023-04-01T11:44:21.673Z,3.60
2023-04-01T11:47:05.199Z,2.33
2023-04-01T11:49:47.418Z,4.47
2023-04-01T11:52:31.125Z,2.30
2023-04-01T11:55:18.959Z,5.37
2023-04-01T11:58:11.253Z,5.47
2023-04-01T12:01:09.072Z,5.83
2023-04-01T12:03:53.992Z,3.23
2023-04-01T12:06:32.538Z,4.73
2023-04-01T12:09:10.127Z,2.40
2023-04-01T12:11:53.099Z,5.67
2023-04-01T12:14:30.487Z,2.03
2023-04-01T12:17:10.451Z,1.07
2023-04-01T12:19:45.928Z,1.90
2023-04-01T12:22:34.023Z,2.80
2023-04-01T12:25:19.673Z,2.47
2023-04-01T12:28:04.063Z,3.40
2023-04-01T12:30:51.006Z,5.53
2023-04-01T12:33:46.932Z,2.70
2023-04-01T12:36:34.667Z,4.30
2023-04-01T12:39:21.983Z,0.70
2023-04-01T12:41:57.735Z,1.93
2023-04-01T12:44:52.713Z,0.60
2023-04-01T12:47:43.252Z,4.47
2023-04-01T12:50:33.640Z,0.60
2023-04-01T12:53:19.941Z,5.90
2023-04-01T12:55:51.740Z,2.40
2023-04-01T12:59:04.218Z,1.47
2023-04-01T13:01:52.783Z,2.03
2023-04-01T13:04:57.222Z,0.60
2023-04-01T13:07:35.875Z,0.77
2023-04-01T13:10:15.921Z,1.60
2023-04-01T13:13:13.799Z,2.60
2023-04-01T13:15:47.544Z,0.97
2023-04-01T13:18:27.833Z,1.70
2023-04-01T13:21:11.416Z,1.70
2023-04-01T13:23:52.837Z,2.03
2023-04-01T13:26:27.691Z,0.80
2023-04-01T13:29:06.815Z,1.20
2023-04-01T13:31:57.885Z,1.50
2023-04-01T13:34:38.123Z,2.00
2023-04-01T13:37:20.168Z,15.67
2023-04-01T13:39:59.184Z,2.20
2023-04-01T13:42:32.534Z,2.07
2023-04-01T13:45:14.744Z,1.13
2023-04-01T13:48:28.959Z,4.00
2023-04-01T13:51:14.316Z,1.10
2023-04-01T13:54:05.941Z,1.67
2023-04-01T13:56:40.633Z,1.70
2023-04-01T13:59:39.046Z,0.50
2023-04-01T14:02:23.985Z,1.57
2023-04-01T14:05:11.883Z,0.97
2023-04-01T14:07:56.517Z,0.93
2023-04-01T14:10:36.306Z,1.33
2023-04-01T14:13:12.157Z,3.93
2023-04-01T14:15:58.013Z,2.70
2023-04-01T14:18:52.164Z,1.20
2023-04-01T14:21:29.806Z,0.90
2023-04-01T14:24:11.605Z,2.27
2023-04-01T14:27:15.223Z,1.80
2023-04-01T14:30:02.493Z,6.03
2023-04-01T14:32:41.266Z,1.27
2023-04-01T14:35:27.726Z,1.63
2023-04-01T14:38:28.914Z,1.53
2023-04-01T14:41:02.663Z,1.30
2023-04-01T14:43:49.796Z,1.37
2023-04-01T14:47:06.767Z,1.37
2023-04-01T14:49:38.809Z,3.13
2023-04-01T14:52:12.493Z,2.47
2023-04-01T14:54:47.342Z,2.03
2023-04-01T14:57:18.173Z,0.80
2023-04-01T14:59:51.091Z,4.10
2023-04-01T15:02:47.574Z,1.30
2023-04-01T15:05:38.305Z,2.70
2023-04-01T15:08:18.455Z,4.23
2023-04-01T15:11:23.168Z,3.73
2023-04-01T15:14:21.621Z,1.33
2023-04-01T15:17:07.538Z,1.90
2023-04-01T15:19:49.204Z,2.57
2023-04-01T15:22:49.969Z,1.47
2023-04-01T15:25:44.211Z,1.33
2023-04-01T15:28:26.522Z,1.13
2023-04-01T15:31:00.227Z,2.37
2023-04-01T15:33:45.288Z,0.83
2023-04-01T15:36:26.772Z,0.80
2023-04-01T15:39:06.280Z,1.50
2023-04-01T15:41:48.203Z,4.83
2023-04-01T15:44:48.800Z,5.63
2023-04-01T15:47:36.094Z,3.40
2023-04-01T15:50:38.640Z,0.90
2023-04-01T15:53:21.172Z,3.03
2023-04-01T15:55:58.749Z,1.73
2023-04-01T15:58:44.047Z,4.17
2023-04-01T16:01:26.528Z,3.93
2023-04-01T16:04:09.142Z,2.10
2023-04-01T16:06:53.468Z,1.67
2023-04-01T16:09:46.117Z,6.33
2023-04-01T16:12:23.106Z,4.50
2023-04-01T16:15:06.699Z,3.07
2023-04-01T16:18:05.789Z,4.33
2023-04-01T16:20:51.431Z,5.90
2023-04-01T16:23:31.384Z,3.67
2023-04-01T16:26:08.268Z,2.60
2023-04-01T16:28:47.118Z,4.83
2023-04-01T16:31:26.525Z,5.60
2023-04-01T16:34:01.083Z,2.63
2023-04-01T16:36:35.765Z,2.20
2023-04-01T16:39:29.884Z,2.50
2023-04-01T16:42:24.813Z,2.37
2023-04-01T16:45:02.253Z,5.30
2023-04-01T16:47:39.423Z,2.03
2023-04-01T16:50:17.050Z,4.50
2023-04-01T16:53:01.148Z,5.33
2023-04-01T16:55:43.760Z,2.03
2023-04-01T16:58:16.804Z,4.40
2023-04-01T17:00:52.998Z,1.40
2023-04-01T17:03:28.565Z,1.47
2023-04-01T17:06:13.536Z,2.77
2023-04-01T17:08:58.563Z,2.07
2023-04-01T17:11:30.144Z,2.77
2023-04-01T17:14:15.466Z,1.77
2023-04-01T17:17:29.461Z,1.17
2023-04-01T17:20:14.323Z,4.00
2023-04-01T17:22:51.055Z,1.20
2023-04-01T17:25:31.973Z,3.80
2023-04-01T17:28:07.897Z,1.63
2023-04-01T17:30:39.654Z,1.50
2023-04-01T17:33:39.291Z,3.90
2023-04-01T17:36:19.159Z,1.40
2023-04-01T17:39:08.524Z,8.23
2023-04-01T17:41:49.863Z,1.50
2023-04-01T17:44:31.209Z,1.70
2023-04-01T17:47:13.846Z,5.47
2023-04-01T17:49:52.345Z,2.23
2023-04-01T17:52:30.344Z,4.47
2023-04-01T17:55:07.613Z,2.50
2023-04-01T17:57:49.614Z,3.47
2023-04-01T18:00:26.293Z,7.77
2023-04-01T18:03:08.860Z,2.03
2023-04-01T18:05:53.638Z,1.67
2023-04-01T18:08:37.462Z,3.27
2023-04-01T18:11:19.656Z,4.17
2023-04-01T18:14:22.072Z,1.73
2023-04-01T18:17:05.919Z,2.60
2023-04-01T18:19:46.433Z,3.43
2023-04-01T18:22:26.350Z,4.03
2023-04-01T18:25:03.911Z,2.30
2023-04-01T18:27:38.841Z,2.87
2023-04-01T18:30:16.300Z,3.27
2023-04-01T18:32:51.226Z,2.50
2023-04-01T18:35:27.980Z,1.13
2023-04-01T18:38:06.288Z,4.13
2023-04-01T18:40:39.125Z,5.70
2023-04-01T18:43:22.810Z,4.43
2023-04-01T18:45:57.561Z,4.63
2023-04-01T18:48:44.988Z,6.33
2023-04-01T18:51:19.941Z,3.83
2023-04-01T18:53:59.130Z,4.77
2023-04-01T18:56:32.653Z,6.57
2023-04-01T18:59:13.791Z,3.87
2023-04-01T19:01:50.619Z,4.27
2023-04-01T19:04:44.207Z,5.07
2023-04-01T19:07:44.156Z,3.37
2023-04-01T19:10:22.374Z,4.97
2023-04-01T19:13:00.239Z,6.17
2023-04-01T19:15:36.439Z,6.03
2023-04-01T19:18:27.908Z,11.10
2023-04-01T19:21:03.812Z,6.00
2023-04-01T19:24:07.398Z,7.90
2023-04-01T19:26:40.248Z,4.77
2023-04-01T19:29:20.671Z,8.63
2023-04-01T19:32:01.855Z,12.80
2023-04-01T19:34:40.679Z,7.63
2023-04-01T19:37:21.328Z,8.83
2023-04-01T19:40:00.502Z,5.57
2023-04-01T19:42:39.255Z,8.73
2023-04-01T19:45:26.540Z,5.80
2023-04-01T19:48:02.895Z,8.83
2023-04-01T19:50:38.108Z,12.73
2023-04-01T19:53:21.029Z,6.60
2023-04-01T19:55:59.259Z,8.43
2023-04-01T19:58:36.577Z,6.97
2023-04-01T20:01:06.960Z,4.80
2023-04-01T20:03:44.898Z,7.43
2023-04-01T20:06:21.455Z,5.90
2023-04-01T20:09:00.410Z,5.70
2023-04-01T20:11:40.261Z,5.37
2023-04-01T20:14:22.040Z,4.27
2023-04-01T20:17:01.452Z,5.97
2023-04-01T20:19:36.060Z,9.57
2023-04-01T20:22:10.765Z,8.33
2023-04-01T20:24:44.614Z,7.53
2023-04-01T20:27:22.007Z,5.97
2023-04-01T20:30:07.443Z,5.37
2023-04-01T20:32:51.468Z,8.90
2023-04-01T20:35:34.713Z,13.70
2023-04-01T20:38:26.751Z,8.73
2023-04-01T20:41:01.801Z,5.50
2023-04-01T20:44:14.166Z,7.43
2023-04-01T20:46:54.428Z,17.53
2023-04-01T20:49:42.134Z,9.50
2023-04-01T20:52:28.650Z,13.70
2023-04-01T20:55:26.428Z,16.33
2023-04-01T20:58:09.057Z,7.13
2023-04-01T21:00:56.260Z,11.63
2023-04-01T21:03:39.587Z,10.20
2023-04-01T21:06:29.456Z,6.73
2023-04-01T21:09:21.114Z,10.27
2023-04-01T21:11:58.743Z,22.80
2023-04-01T21:15:02.482Z,11.93
2023-04-01T21:17:42.086Z,12.10
2023-04-01T21:20:43.218Z,14.33
2023-04-01T21:23:45.980Z,9.77
2023-04-01T21:26:50.345Z,7.70
2023-04-01T21:29:50.070Z,11.47
2023-04-01T21:32:34.077Z,7.20
2023-04-01T21:35:09.451Z,9.50
2023-04-01T21:38:06.232Z,7.43
2023-04-01T21:41:05.108Z,7.10
2023-04-01T21:44:15.422Z,5.40
2023-04-01T21:47:25.869Z,10.53
2023-04-01T21:50:42.331Z,7.73
2023-04-01T21:54:02.394Z,5.83
2023-04-01T21:57:00.272Z,11.97
2023-04-01T21:59:50.768Z,10.40
2023-04-01T22:02:54.442Z,6.60
2023-04-01T22:05:27.235Z,6.20
2023-04-01T22:08:06.724Z,13.93
2023-04-01T22:10:43.806Z,9.33
2023-04-01T22:13:18.571Z,5.87
2023-04-01T22:16:02.014Z,6.50
2023-04-01T22:18:36.459Z,4.20
2023-04-01T22:21:11.725Z,7.30
2023-04-01T22:23:46.952Z,4.57
2023-04-01T22:26:25.871Z,8.10
2023-04-01T22:29:01.564Z,8.43
2023-04-01T22:31:36.029Z,5.97
2023-04-01T22:34:12.653Z,9.63
2023-04-01T22:36:53.502Z,6.10
2023-04-01T22:39:36.030Z,3.63
2023-04-01T22:42:17.996Z,8.77
2023-04-01T22:45:00.227Z,8.13
2023-04-01T22:47:40.897Z,5.33
2023-04-01T22:50:19.901Z,5.03
2023-04-01T22:52:49.733Z,5.93
2023-04-01T22:55:22.740Z,10.10
2023-04-01T22:57:56.418Z,8.37
2023-04-01T23:00:28.992Z,8.27
2023-04-01T23:03:14.067Z,10.33
2023-04-01T23:05:49.390Z,6.17
2023-04-01T23:08:56.055Z,7.17
2023-04-01T23:11:28.716Z,8.17
2023-04-01T23:14:20.431Z,4.73
2023-04-01T23:16:54.861Z,9.57
2023-04-01T23:19:27.513Z,4.50
2023-04-01T23:22:07.977Z,5.27
2023-04-01T23:24:41.130Z,7.30
2023-04-01T23:27:16.038Z,4.67
2023-04-01T23:29:45.990Z,4.00
2023-04-01T23:32:19.723Z,6.10
2023-04-01T23:34:51.152Z,4.10
2023-04-01T23:37:21.172Z,3.93
2023-04-01T23:39:52.550Z,7.10
2023-04-01T23:42:23.974Z,4.83
2023-04-01T23:44:56.384Z,9.97
2023-04-01T23:47:27.133Z,5.37
2023-04-01T23:49:58.330Z,3.93
2023-04-01T23:52:29.001Z,4.03
2023-04-01T23:55:01.416Z,7.77
2023-04-01T23:57:33.229Z,7.23
